Cypress, California
Current Conditions -  °F | °C
As of 8:58 PM on Sunday 21 Dec 2014 (Local Time) from KSLI Reporting Station
Clear Clear  
Wind Chill: 55°   Ceiling: Unl
Heat Index: 55°   Visibility: 8mi
Dew Point: 55°   Wind: 1mph
Humidity: 98%   Direction: 70°ENE
Pressure: 30.06"   Gusts: NA
Location:  33.82°N, 118.03°W
Report Text: KSLI 220458Z AUTO 07001KT 8SM CLR 13/13 A3006 RMK AO2 SLP182 T01280125
Loading
Personal Weather Stations






























Interactive Weather Map New forecast layout! Learn more

10-Day Weather Forecast

Advertisements
Track Severe Weather on mobile